Terminal Aerodrome Forecast
Issued by NWS Wilmington, OH

Current Version | Previous Version | Text Only | Print | Product List | Glossary Off
Versions: 1 2 3 4 5 6 7 8 9 10 11 12 13 14 15 16 17 18 19 20 21 22

791
FTUS41 KILN 271508 AAA
TAFCVG
TAF AMD
KCVG 271508Z 2715/2818 20008KT P6SM SCT040 SCT250
     FM280500 18004KT P6SM BKN150
     FM281500 20009KT P6SM SCT050 BKN200=

USA.gov is the U.S. government's official web portal to all federal, state and local government web resources and services.